sensor_id;sensor_type;location;lat;lon;timestamp;P1;durP1;ratioP1;P2;durP2;ratioP2
39930;SDS011;26635;-35.248;149.138;2023-06-10T00:01:30;6.53;;;1.30;;
39930;SDS011;26635;-35.248;149.138;2023-06-10T00:04:03;3.13;;;0.98;;
39930;SDS011;26635;-35.248;149.138;2023-06-10T00:06:34;4.45;;;1.35;;
39930;SDS011;26635;-35.248;149.138;2023-06-10T00:09:06;4.35;;;1.00;;
39930;SDS011;26635;-35.248;149.138;2023-06-10T00:11:41;2.67;;;1.10;;
39930;SDS011;26635;-35.248;149.138;2023-06-10T00:14:12;5.63;;;0.70;;
39930;SDS011;26635;-35.248;149.138;2023-06-10T00:16:43;4.22;;;1.27;;
39930;SDS011;26635;-35.248;149.138;2023-06-10T00:19:14;3.53;;;0.95;;
39930;SDS011;26635;-35.248;149.138;2023-06-10T00:21:47;4.95;;;1.13;;
39930;SDS011;26635;-35.248;149.138;2023-06-10T00:24:20;5.88;;;1.20;;
39930;SDS011;26635;-35.248;149.138;2023-06-10T00:26:51;3.75;;;1.27;;
39930;SDS011;26635;-35.248;149.138;2023-06-10T00:29:23;3.95;;;0.68;;
39930;SDS011;26635;-35.248;149.138;2023-06-10T00:31:53;4.07;;;1.10;;
39930;SDS011;26635;-35.248;149.138;2023-06-10T00:34:27;3.88;;;0.75;;
39930;SDS011;26635;-35.248;149.138;2023-06-10T00:37:00;2.35;;;0.60;;
39930;SDS011;26635;-35.248;149.138;2023-06-10T00:39:31;3.40;;;0.60;;
39930;SDS011;26635;-35.248;149.138;2023-06-10T00:42:03;2.72;;;0.60;;
39930;SDS011;26635;-35.248;149.138;2023-06-10T00:44:35;3.03;;;0.50;;
39930;SDS011;26635;-35.248;149.138;2023-06-10T00:47:07;1.92;;;0.50;;
39930;SDS011;26635;-35.248;149.138;2023-06-10T00:49:38;3.25;;;0.32;;
39930;SDS011;26635;-35.248;149.138;2023-06-10T00:52:10;5.72;;;0.30;;
39930;SDS011;26635;-35.248;149.138;2023-06-10T00:54:41;0.50;;;0.20;;
39930;SDS011;26635;-35.248;149.138;2023-06-10T00:57:20;1.60;;;0.30;;
39930;SDS011;26635;-35.248;149.138;2023-06-10T00:59:51;0.22;;;0.10;;
39930;SDS011;26635;-35.248;149.138;2023-06-10T01:02:25;0.80;;;0.20;;
39930;SDS011;26635;-35.248;149.138;2023-06-10T01:04:58;7.18;;;0.52;;
39930;SDS011;26635;-35.248;149.138;2023-06-10T01:07:43;0.50;;;0.13;;
39930;SDS011;26635;-35.248;149.138;2023-06-10T01:15:32;0.40;;;0.20;;
39930;SDS011;26635;-35.248;149.138;2023-06-10T01:18:05;0.95;;;0.10;;
39930;SDS011;26635;-35.248;149.138;2023-06-10T01:20:44;2.20;;;0.20;;
39930;SDS011;26635;-35.248;149.138;2023-06-10T01:23:19;0.20;;;0.10;;
39930;SDS011;26635;-35.248;149.138;2023-06-10T01:25:53;1.65;;;0.40;;
39930;SDS011;26635;-35.248;149.138;2023-06-10T01:28:52;3.53;;;0.73;;
39930;SDS011;26635;-35.248;149.138;2023-06-10T01:34:34;2.22;;;0.38;;
39930;SDS011;26635;-35.248;149.138;2023-06-10T01:37:12;1.60;;;0.38;;
39930;SDS011;26635;-35.248;149.138;2023-06-10T01:39:46;0.32;;;0.10;;
39930;SDS011;26635;-35.248;149.138;2023-06-10T01:42:21;0.82;;;0.10;;
39930;SDS011;26635;-35.248;149.138;2023-06-10T01:44:52;2.42;;;0.20;;
39930;SDS011;26635;-35.248;149.138;2023-06-10T01:47:25;0.85;;;0.17;;
39930;SDS011;26635;-35.248;149.138;2023-06-10T01:49:56;0.85;;;0.13;;
39930;SDS011;26635;-35.248;149.138;2023-06-10T01:52:27;0.70;;;0.10;;
39930;SDS011;26635;-35.248;149.138;2023-06-10T01:54:58;2.45;;;0.25;;
39930;SDS011;26635;-35.248;149.138;2023-06-10T01:57:30;1.30;;;0.20;;
39930;SDS011;26635;-35.248;149.138;2023-06-10T02:00:02;2.15;;;0.15;;
39930;SDS011;26635;-35.248;149.138;2023-06-10T02:02:39;1.35;;;0.20;;
39930;SDS011;26635;-35.248;149.138;2023-06-10T02:05:24;0.60;;;0.17;;
39930;SDS011;26635;-35.248;149.138;2023-06-10T02:07:57;1.00;;;0.20;;
39930;SDS011;26635;-35.248;149.138;2023-06-10T02:10:33;0.70;;;0.13;;
39930;SDS011;26635;-35.248;149.138;2023-06-10T02:13:04;0.47;;;0.20;;
39930;SDS011;26635;-35.248;149.138;2023-06-10T02:15:35;1.55;;;0.20;;
39930;SDS011;26635;-35.248;149.138;2023-06-10T02:18:08;2.22;;;0.38;;
39930;SDS011;26635;-35.248;149.138;2023-06-10T02:20:43;1.42;;;0.95;;
39930;SDS011;26635;-35.248;149.138;2023-06-10T02:23:15;0.73;;;0.20;;
39930;SDS011;26635;-35.248;149.138;2023-06-10T02:25:47;2.00;;;0.15;;
39930;SDS011;26635;-35.248;149.138;2023-06-10T02:28:21;1.05;;;0.28;;
39930;SDS011;26635;-35.248;149.138;2023-06-10T02:30:52;0.93;;;0.20;;
39930;SDS011;26635;-35.248;149.138;2023-06-10T02:33:23;1.35;;;0.20;;
39930;SDS011;26635;-35.248;149.138;2023-06-10T02:35:55;1.17;;;0.10;;
39930;SDS011;26635;-35.248;149.138;2023-06-10T02:38:29;1.55;;;0.22;;
39930;SDS011;26635;-35.248;149.138;2023-06-10T02:41:02;1.25;;;0.10;;
39930;SDS011;26635;-35.248;149.138;2023-06-10T02:43:33;3.42;;;0.30;;
39930;SDS011;26635;-35.248;149.138;2023-06-10T02:46:04;1.08;;;0.20;;
39930;SDS011;26635;-35.248;149.138;2023-06-10T02:48:41;1.65;;;0.10;;
39930;SDS011;26635;-35.248;149.138;2023-06-10T02:51:17;1.38;;;0.57;;
39930;SDS011;26635;-35.248;149.138;2023-06-10T02:53:48;0.47;;;0.20;;
39930;SDS011;26635;-35.248;149.138;2023-06-10T02:56:19;0.22;;;0.10;;
39930;SDS011;26635;-35.248;149.138;2023-06-10T02:58:51;0.13;;;0.10;;
39930;SDS011;26635;-35.248;149.138;2023-06-10T03:01:22;0.47;;;0.10;;
39930;SDS011;26635;-35.248;149.138;2023-06-10T03:03:53;0.47;;;0.20;;
39930;SDS011;26635;-35.248;149.138;2023-06-10T03:06:25;1.35;;;0.20;;
39930;SDS011;26635;-35.248;149.138;2023-06-10T03:09:02;1.27;;;0.20;;
39930;SDS011;26635;-35.248;149.138;2023-06-10T03:11:35;0.65;;;0.20;;
39930;SDS011;26635;-35.248;149.138;2023-06-10T03:14:11;3.03;;;0.88;;
39930;SDS011;26635;-35.248;149.138;2023-06-10T03:16:43;1.30;;;0.20;;
39930;SDS011;26635;-35.248;149.138;2023-06-10T03:19:14;1.67;;;0.20;;
39930;SDS011;26635;-35.248;149.138;2023-06-10T03:21:50;1.73;;;0.20;;
39930;SDS011;26635;-35.248;149.138;2023-06-10T03:24:36;1.20;;;0.17;;
39930;SDS011;26635;-35.248;149.138;2023-06-10T03:27:09;1.80;;;0.28;;
39930;SDS011;26635;-35.248;149.138;2023-06-10T03:29:40;1.33;;;0.20;;
39930;SDS011;26635;-35.248;149.138;2023-06-10T03:32:12;1.40;;;0.20;;
39930;SDS011;26635;-35.248;149.138;2023-06-10T03:34:45;1.73;;;0.40;;
39930;SDS011;26635;-35.248;149.138;2023-06-10T03:37:16;0.95;;;0.50;;
39930;SDS011;26635;-35.248;149.138;2023-06-10T03:39:47;1.95;;;0.52;;
39930;SDS011;26635;-35.248;149.138;2023-06-10T03:42:19;2.03;;;0.30;;
39930;SDS011;26635;-35.248;149.138;2023-06-10T03:44:59;2.90;;;1.05;;
39930;SDS011;26635;-35.248;149.138;2023-06-10T03:47:34;1.92;;;0.50;;
39930;SDS011;26635;-35.248;149.138;2023-06-10T03:50:08;3.45;;;0.55;;
39930;SDS011;26635;-35.248;149.138;2023-06-10T03:52:39;2.10;;;0.40;;
39930;SDS011;26635;-35.248;149.138;2023-06-10T03:55:10;5.55;;;0.60;;
39930;SDS011;26635;-35.248;149.138;2023-06-10T03:57:44;2.58;;;0.30;;
39930;SDS011;26635;-35.248;149.138;2023-06-10T04:00:15;3.38;;;0.65;;
39930;SDS011;26635;-35.248;149.138;2023-06-10T04:02:51;4.25;;;0.82;;
39930;SDS011;26635;-35.248;149.138;2023-06-10T04:05:22;1.33;;;0.38;;
39930;SDS011;26635;-35.248;149.138;2023-06-10T04:07:53;0.82;;;0.38;;
39930;SDS011;26635;-35.248;149.138;2023-06-10T04:10:27;0.57;;;0.20;;
39930;SDS011;26635;-35.248;149.138;2023-06-10T04:13:01;2.15;;;0.70;;
39930;SDS011;26635;-35.248;149.138;2023-06-10T04:15:32;4.03;;;1.42;;
39930;SDS011;26635;-35.248;149.138;2023-06-10T04:18:04;1.98;;;0.43;;
39930;SDS011;26635;-35.248;149.138;2023-06-10T04:20:35;1.00;;;0.38;;
39930;SDS011;26635;-35.248;149.138;2023-06-10T04:23:07;0.93;;;0.20;;
39930;SDS011;26635;-35.248;149.138;2023-06-10T04:25:38;0.77;;;0.22;;
39930;SDS011;26635;-35.248;149.138;2023-06-10T04:28:09;0.88;;;0.30;;
39930;SDS011;26635;-35.248;149.138;2023-06-10T04:30:40;0.80;;;0.20;;
39930;SDS011;26635;-35.248;149.138;2023-06-10T04:33:11;0.85;;;0.20;;
39930;SDS011;26635;-35.248;149.138;2023-06-10T04:35:42;1.58;;;0.38;;
39930;SDS011;26635;-35.248;149.138;2023-06-10T04:38:13;1.05;;;0.30;;
39930;SDS011;26635;-35.248;149.138;2023-06-10T04:40:52;3.53;;;1.17;;
39930;SDS011;26635;-35.248;149.138;2023-06-10T04:43:24;2.33;;;1.00;;
39930;SDS011;26635;-35.248;149.138;2023-06-10T04:45:55;3.55;;;1.63;;
39930;SDS011;26635;-35.248;149.138;2023-06-10T04:48:27;3.30;;;0.70;;
39930;SDS011;26635;-35.248;149.138;2023-06-10T04:50:59;2.35;;;0.82;;
39930;SDS011;26635;-35.248;149.138;2023-06-10T04:53:32;2.28;;;0.25;;
39930;SDS011;26635;-35.248;149.138;2023-06-10T04:56:03;1.85;;;0.90;;
39930;SDS011;26635;-35.248;149.138;2023-06-10T04:58:34;0.60;;;0.32;;
39930;SDS011;26635;-35.248;149.138;2023-06-10T05:01:07;1.92;;;0.10;;
39930;SDS011;26635;-35.248;149.138;2023-06-10T05:03:42;1.13;;;0.20;;
39930;SDS011;26635;-35.248;149.138;2023-06-10T05:06:14;2.38;;;0.50;;
39930;SDS011;26635;-35.248;149.138;2023-06-10T05:08:44;1.38;;;0.50;;
39930;SDS011;26635;-35.248;149.138;2023-06-10T05:11:15;1.63;;;0.30;;
39930;SDS011;26635;-35.248;149.138;2023-06-10T05:13:46;0.20;;;0.10;;
39930;SDS011;26635;-35.248;149.138;2023-06-10T05:16:18;2.38;;;0.68;;
39930;SDS011;26635;-35.248;149.138;2023-06-10T05:18:52;3.20;;;0.50;;
39930;SDS011;26635;-35.248;149.138;2023-06-10T05:21:25;0.52;;;0.10;;
39930;SDS011;26635;-35.248;149.138;2023-06-10T05:24:00;1.05;;;0.20;;
39930;SDS011;26635;-35.248;149.138;2023-06-10T05:26:31;1.50;;;0.20;;
39930;SDS011;26635;-35.248;149.138;2023-06-10T05:29:04;1.63;;;0.30;;
39930;SDS011;26635;-35.248;149.138;2023-06-10T05:31:36;0.98;;;0.40;;
39930;SDS011;26635;-35.248;149.138;2023-06-10T05:34:07;1.25;;;0.30;;
39930;SDS011;26635;-35.248;149.138;2023-06-10T05:36:46;0.50;;;0.20;;
39930;SDS011;26635;-35.248;149.138;2023-06-10T05:39:17;1.45;;;0.20;;
39930;SDS011;26635;-35.248;149.138;2023-06-10T05:41:48;0.95;;;0.30;;
39930;SDS011;26635;-35.248;149.138;2023-06-10T05:44:19;1.98;;;0.38;;
39930;SDS011;26635;-35.248;149.138;2023-06-10T05:46:56;2.50;;;0.40;;
39930;SDS011;26635;-35.248;149.138;2023-06-10T05:49:27;1.02;;;0.20;;
39930;SDS011;26635;-35.248;149.138;2023-06-10T05:51:58;1.38;;;0.60;;
39930;SDS011;26635;-35.248;149.138;2023-06-10T05:54:29;1.60;;;0.30;;
39930;SDS011;26635;-35.248;149.138;2023-06-10T05:57:02;1.75;;;0.40;;
39930;SDS011;26635;-35.248;149.138;2023-06-10T05:59:35;2.45;;;0.30;;
39930;SDS011;26635;-35.248;149.138;2023-06-10T06:02:06;4.60;;;0.38;;
39930;SDS011;26635;-35.248;149.138;2023-06-10T06:04:39;0.57;;;0.20;;
39930;SDS011;26635;-35.248;149.138;2023-06-10T06:07:10;3.33;;;0.35;;
39930;SDS011;26635;-35.248;149.138;2023-06-10T06:09:42;0.65;;;0.20;;
39930;SDS011;26635;-35.248;149.138;2023-06-10T06:12:13;1.83;;;0.30;;
39930;SDS011;26635;-35.248;149.138;2023-06-10T06:14:43;1.58;;;0.40;;
39930;SDS011;26635;-35.248;149.138;2023-06-10T06:17:17;1.60;;;0.35;;
39930;SDS011;26635;-35.248;149.138;2023-06-10T06:19:51;2.33;;;0.30;;
39930;SDS011;26635;-35.248;149.138;2023-06-10T06:22:23;0.95;;;0.30;;
39930;SDS011;26635;-35.248;149.138;2023-06-10T06:24:53;2.80;;;0.30;;
39930;SDS011;26635;-35.248;149.138;2023-06-10T06:27:26;2.38;;;1.10;;
39930;SDS011;26635;-35.248;149.138;2023-06-10T06:29:57;3.45;;;0.50;;
39930;SDS011;26635;-35.248;149.138;2023-06-10T06:32:30;1.35;;;0.52;;
39930;SDS011;26635;-35.248;149.138;2023-06-10T06:35:01;3.15;;;0.52;;
39930;SDS011;26635;-35.248;149.138;2023-06-10T06:37:35;1.92;;;0.35;;
39930;SDS011;26635;-35.248;149.138;2023-06-10T06:40:07;4.20;;;0.50;;
39930;SDS011;26635;-35.248;149.138;2023-06-10T06:42:39;4.90;;;0.50;;
39930;SDS011;26635;-35.248;149.138;2023-06-10T06:45:14;11.43;;;1.92;;
39930;SDS011;26635;-35.248;149.138;2023-06-10T06:47:49;0.52;;;0.25;;
39930;SDS011;26635;-35.248;149.138;2023-06-10T06:50:21;1.00;;;0.28;;
39930;SDS011;26635;-35.248;149.138;2023-06-10T06:52:52;0.95;;;0.40;;
39930;SDS011;26635;-35.248;149.138;2023-06-10T06:55:27;2.10;;;0.82;;
39930;SDS011;26635;-35.248;149.138;2023-06-10T06:57:59;3.35;;;0.60;;
39930;SDS011;26635;-35.248;149.138;2023-06-10T07:00:37;2.35;;;0.45;;
39930;SDS011;26635;-35.248;149.138;2023-06-10T07:03:07;2.67;;;0.70;;
39930;SDS011;26635;-35.248;149.138;2023-06-10T07:05:40;4.05;;;0.82;;
39930;SDS011;26635;-35.248;149.138;2023-06-10T07:08:11;3.30;;;0.50;;
39930;SDS011;26635;-35.248;149.138;2023-06-10T07:10:42;6.20;;;0.98;;
39930;SDS011;26635;-35.248;149.138;2023-06-10T07:13:13;2.20;;;0.68;;
39930;SDS011;26635;-35.248;149.138;2023-06-10T07:15:45;2.33;;;0.70;;
39930;SDS011;26635;-35.248;149.138;2023-06-10T07:18:18;2.70;;;0.90;;
39930;SDS011;26635;-35.248;149.138;2023-06-10T07:20:51;2.33;;;0.50;;
39930;SDS011;26635;-35.248;149.138;2023-06-10T07:23:26;2.20;;;0.80;;
39930;SDS011;26635;-35.248;149.138;2023-06-10T07:25:58;4.03;;;1.55;;
39930;SDS011;26635;-35.248;149.138;2023-06-10T07:28:28;1.30;;;0.70;;
39930;SDS011;26635;-35.248;149.138;2023-06-10T07:30:59;2.20;;;0.60;;
39930;SDS011;26635;-35.248;149.138;2023-06-10T07:33:32;2.90;;;0.68;;
39930;SDS011;26635;-35.248;149.138;2023-06-10T07:36:05;1.45;;;0.50;;
39930;SDS011;26635;-35.248;149.138;2023-06-10T07:38:39;3.78;;;0.60;;
39930;SDS011;26635;-35.248;149.138;2023-06-10T07:41:12;4.35;;;0.50;;
39930;SDS011;26635;-35.248;149.138;2023-06-10T07:43:44;6.63;;;1.95;;
39930;SDS011;26635;-35.248;149.138;2023-06-10T07:46:15;1.83;;;0.40;;
39930;SDS011;26635;-35.248;149.138;2023-06-10T07:48:46;2.05;;;0.50;;
39930;SDS011;26635;-35.248;149.138;2023-06-10T07:51:20;3.45;;;0.70;;
39930;SDS011;26635;-35.248;149.138;2023-06-10T07:53:51;2.88;;;0.82;;
39930;SDS011;26635;-35.248;149.138;2023-06-10T07:56:24;4.72;;;0.98;;
39930;SDS011;26635;-35.248;149.138;2023-06-10T07:58:57;4.03;;;1.73;;
39930;SDS011;26635;-35.248;149.138;2023-06-10T08:01:29;2.35;;;0.57;;
39930;SDS011;26635;-35.248;149.138;2023-06-10T08:04:03;1.77;;;0.52;;
39930;SDS011;26635;-35.248;149.138;2023-06-10T08:06:35;6.63;;;2.80;;
39930;SDS011;26635;-35.248;149.138;2023-06-10T08:09:08;2.67;;;1.02;;
39930;SDS011;26635;-35.248;149.138;2023-06-10T08:11:39;5.70;;;2.47;;
39930;SDS011;26635;-35.248;149.138;2023-06-10T08:14:10;4.28;;;1.20;;
39930;SDS011;26635;-35.248;149.138;2023-06-10T08:16:42;4.18;;;1.70;;
39930;SDS011;26635;-35.248;149.138;2023-06-10T08:19:15;4.57;;;1.20;;
39930;SDS011;26635;-35.248;149.138;2023-06-10T08:21:47;9.32;;;1.77;;
39930;SDS011;26635;-35.248;149.138;2023-06-10T08:24:22;4.68;;;1.90;;
39930;SDS011;26635;-35.248;149.138;2023-06-10T08:26:56;4.18;;;1.98;;
39930;SDS011;26635;-35.248;149.138;2023-06-10T08:29:27;8.57;;;2.70;;
39930;SDS011;26635;-35.248;149.138;2023-06-10T08:32:03;3.85;;;1.15;;
39930;SDS011;26635;-35.248;149.138;2023-06-10T08:34:34;5.03;;;1.10;;
39930;SDS011;26635;-35.248;149.138;2023-06-10T08:37:06;2.60;;;1.08;;
39930;SDS011;26635;-35.248;149.138;2023-06-10T08:39:38;3.33;;;1.98;;
39930;SDS011;26635;-35.248;149.138;2023-06-10T08:42:17;3.65;;;0.98;;
39930;SDS011;26635;-35.248;149.138;2023-06-10T08:45:04;2.83;;;1.23;;
39930;SDS011;26635;-35.248;149.138;2023-06-10T08:47:38;3.53;;;1.35;;
39930;SDS011;26635;-35.248;149.138;2023-06-10T08:50:12;5.85;;;2.53;;
39930;SDS011;26635;-35.248;149.138;2023-06-10T08:52:44;6.35;;;2.25;;
39930;SDS011;26635;-35.248;149.138;2023-06-10T08:55:23;8.02;;;3.00;;
39930;SDS011;26635;-35.248;149.138;2023-06-10T08:58:02;7.25;;;1.80;;
39930;SDS011;26635;-35.248;149.138;2023-06-10T09:00:33;4.22;;;1.73;;
39930;SDS011;26635;-35.248;149.138;2023-06-10T09:03:06;7.20;;;1.30;;
39930;SDS011;26635;-35.248;149.138;2023-06-10T09:05:39;6.85;;;1.17;;
39930;SDS011;26635;-35.248;149.138;2023-06-10T09:08:10;4.88;;;1.15;;
39930;SDS011;26635;-35.248;149.138;2023-06-10T09:11:03;4.72;;;1.10;;
39930;SDS011;26635;-35.248;149.138;2023-06-10T09:13:34;3.05;;;0.80;;
39930;SDS011;26635;-35.248;149.138;2023-06-10T09:16:05;2.55;;;1.42;;
39930;SDS011;26635;-35.248;149.138;2023-06-10T09:18:37;2.55;;;0.65;;
39930;SDS011;26635;-35.248;149.138;2023-06-10T09:21:10;4.32;;;1.70;;
39930;SDS011;26635;-35.248;149.138;2023-06-10T09:23:41;6.28;;;0.88;;
39930;SDS011;26635;-35.248;149.138;2023-06-10T09:26:13;5.93;;;1.42;;
39930;SDS011;26635;-35.248;149.138;2023-06-10T09:28:48;3.38;;;1.20;;
39930;SDS011;26635;-35.248;149.138;2023-06-10T09:31:20;2.97;;;1.20;;
39930;SDS011;26635;-35.248;149.138;2023-06-10T09:33:52;8.02;;;1.60;;
39930;SDS011;26635;-35.248;149.138;2023-06-10T09:36:23;6.43;;;1.58;;
39930;SDS011;26635;-35.248;149.138;2023-06-10T09:38:56;4.10;;;1.73;;
39930;SDS011;26635;-35.248;149.138;2023-06-10T09:41:33;2.97;;;1.50;;
39930;SDS011;26635;-35.248;149.138;2023-06-10T09:44:14;5.35;;;2.08;;
39930;SDS011;26635;-35.248;149.138;2023-06-10T09:47:05;6.47;;;2.58;;
39930;SDS011;26635;-35.248;149.138;2023-06-10T09:49:37;7.00;;;2.78;;
39930;SDS011;26635;-35.248;149.138;2023-06-10T09:52:09;8.40;;;2.58;;
39930;SDS011;26635;-35.248;149.138;2023-06-10T09:54:40;7.30;;;2.20;;
39930;SDS011;26635;-35.248;149.138;2023-06-10T09:57:15;9.45;;;3.63;;
39930;SDS011;26635;-35.248;149.138;2023-06-10T09:59:51;5.97;;;2.97;;
39930;SDS011;26635;-35.248;149.138;2023-06-10T10:02:24;6.57;;;3.28;;
39930;SDS011;26635;-35.248;149.138;2023-06-10T10:05:03;5.85;;;2.80;;
39930;SDS011;26635;-35.248;149.138;2023-06-10T10:07:36;7.90;;;3.70;;
39930;SDS011;26635;-35.248;149.138;2023-06-10T10:10:09;5.22;;;3.05;;
39930;SDS011;26635;-35.248;149.138;2023-06-10T10:12:43;6.20;;;3.60;;
39930;SDS011;26635;-35.248;149.138;2023-06-10T10:15:17;8.43;;;3.88;;
39930;SDS011;26635;-35.248;149.138;2023-06-10T10:17:56;6.07;;;2.78;;
39930;SDS011;26635;-35.248;149.138;2023-06-10T10:20:48;8.13;;;3.75;;
39930;SDS011;26635;-35.248;149.138;2023-06-10T10:23:31;9.30;;;3.70;;
39930;SDS011;26635;-35.248;149.138;2023-06-10T10:26:12;5.32;;;2.97;;
39930;SDS011;26635;-35.248;149.138;2023-06-10T10:28:45;8.80;;;3.85;;
39930;SDS011;26635;-35.248;149.138;2023-06-10T10:31:22;8.82;;;3.42;;
39930;SDS011;26635;-35.248;149.138;2023-06-10T10:33:59;8.18;;;4.22;;
39930;SDS011;26635;-35.248;149.138;2023-06-10T10:36:32;7.90;;;3.50;;
39930;SDS011;26635;-35.248;149.138;2023-06-10T10:39:05;6.63;;;3.53;;
39930;SDS011;26635;-35.248;149.138;2023-06-10T10:41:38;8.02;;;4.28;;
39930;SDS011;26635;-35.248;149.138;2023-06-10T10:44:20;8.75;;;4.70;;
39930;SDS011;26635;-35.248;149.138;2023-06-10T10:46:50;6.55;;;4.82;;
39930;SDS011;26635;-35.248;149.138;2023-06-10T10:49:24;8.30;;;4.55;;
39930;SDS011;26635;-35.248;149.138;2023-06-10T10:51:57;10.35;;;4.25;;
39930;SDS011;26635;-35.248;149.138;2023-06-10T10:54:30;7.97;;;4.53;;
39930;SDS011;26635;-35.248;149.138;2023-06-10T10:57:20;11.57;;;4.25;;
39930;SDS011;26635;-35.248;149.138;2023-06-10T10:59:53;8.55;;;4.10;;
39930;SDS011;26635;-35.248;149.138;2023-06-10T11:05:15;8.13;;;4.27;;
39930;SDS011;26635;-35.248;149.138;2023-06-10T11:08:58;7.40;;;3.90;;
39930;SDS011;26635;-35.248;149.138;2023-06-10T11:11:56;7.53;;;3.40;;
39930;SDS011;26635;-35.248;149.138;2023-06-10T11:14:44;7.00;;;3.70;;
39930;SDS011;26635;-35.248;149.138;2023-06-10T11:17:26;10.27;;;3.77;;
39930;SDS011;26635;-35.248;149.138;2023-06-10T11:20:00;12.23;;;4.38;;
39930;SDS011;26635;-35.248;149.138;2023-06-10T23:38:52;3.70;;;2.20;;
39930;SDS011;26635;-35.248;149.138;2023-06-10T23:46:25;5.10;;;1.60;;
39930;SDS011;26635;-35.248;149.138;2023-06-10T23:49:59;5.67;;;1.00;;
39930;SDS011;26635;-35.248;149.138;2023-06-10T23:53:30;3.80;;;1.50;;
39930;SDS011;26635;-35.248;149.138;2023-06-10T23:56:30;2.25;;;1.30;;
39930;SDS011;26635;-35.248;149.138;2023-06-10T23:59:01;2.38;;;0.80;;
